Amarant — SPG3207 — position and weather

sailwx.info

Track history (hours):
 
Tides and Currents Weather Stations Pressure Air Temp Water Temp Dewpoint Dewpoint Depression Visibility Wind Speed Wind Dir Waves Ship Positions

Amarant

Last reported at 2017-Jul-03 13:48 UTC. Time now 2017-Oct-23 06:23 UTC.
Position N 37°44' E 023°43'.
Warning: this ship's position is months out of date.

Length 14 m.

Type: Sailing vessel. MMSI: 261015190.

Date/timePositionNaut miles runAvg speedWind from/ knotsBaromVisibWave heightAir tempDewpointWater temp
2017-Jul-03 13:48N 37°44' E 023°43'2 5.7
2017-Jul-03 13:28N 37°46' E 023°42'3 6.3
2017-Jul-03 13:00N 37°49' E 023°41'3 6.3
2017-Jul-03 12:30N 37°52' E 023°41'3 6.5
2017-Jul-03 12:00N 37°55' E 023°39'1 0.5
2017-Jul-03 09:17N 37°56' E 023°39'0 0.0
2017-Jul-03 08:59N 37°56' E 023°39'0 0.0
2017-Jul-03 08:29N 37°56' E 023°39'0 0.0
2017-Jul-03 07:56N 37°56' E 023°39'0 0.0
2017-Jul-03 07:29N 37°56' E 023°39'0 0.0
2017-Jul-01 17:48N 37°56' E 023°39'  
2017-Jun-28 09:13N 37°56' E 023°39'0 0.0
2017-Jun-28 08:55N 37°56' E 023°39'0 0.0
2017-Jun-28 08:28N 37°56' E 023°39'0 0.0
2017-Jun-28 07:58N 37°56' E 023°39'0 0.0
2017-Jun-28 07:25N 37°56' E 023°39'0 0.0
2017-Jun-28 06:58N 37°56' E 023°39'0 0.0
2017-Jun-28 06:28N 37°56' E 023°39'0 0.0
2017-Jun-28 05:58N 37°56' E 023°39'0 0.0
2017-Jun-28 05:28N 37°56' E 023°39'0 0.0
2017-Jun-28 04:55N 37°56' E 023°39'0 0.0
2017-Jun-28 04:28N 37°56' E 023°39'0 0.0
2017-Jun-28 03:58N 37°56' E 023°39'0 0.0
2017-Jun-28 03:28N 37°56' E 023°39'0 0.0
2017-Jun-28 02:58N 37°56' E 023°39'0 0.0
2017-Jun-28 02:28N 37°56' E 023°39'0 0.0
2017-Jun-28 01:58N 37°56' E 023°39'0 0.0
2017-Jun-28 01:28N 37°56' E 023°39'0 0.0
2017-Jun-28 00:58N 37°56' E 023°39'0 0.0
2017-Jun-28 00:28N 37°56' E 023°39'0 0.0
2017-Jun-27 23:58N 37°56' E 023°39'0 0.0
2017-Jun-27 23:28N 37°56' E 023°39'0 0.0
2017-Jun-27 22:58N 37°56' E 023°39'0 0.0
2017-Jun-27 22:28N 37°56' E 023°39'0 0.0
2017-Jun-27 21:58N 37°56' E 023°39'0 0.0
2017-Jun-27 21:28N 37°56' E 023°39'0 0.0
2017-Jun-27 20:58N 37°56' E 023°39'0 0.0
2017-Jun-27 20:28N 37°56' E 023°39'0 0.0
2017-Jun-27 19:58N 37°56' E 023°39'0 0.0
2017-Jun-27 19:28N 37°56' E 023°39'0 0.0
2017-Jun-27 18:58N 37°56' E 023°39'0 0.0
2017-Jun-27 18:28N 37°56' E 023°39'0 0.0
2017-Jun-27 17:58N 37°56' E 023°39'0 0.0
2017-Jun-27 17:28N 37°56' E 023°39'0 0.0
2017-Jun-27 16:58N 37°56' E 023°39'1 1.4
2017-Jun-27 16:30N 37°55' E 023°39'3 5.3
2017-Jun-27 16:01N 37°55' E 023°35'3 5.6
2017-Jun-27 15:31N 37°55' E 023°32'1 0.4
2017-Jun-27 14:00N 37°54' E 023°32'3 5.5
2017-Jun-27 13:30N 37°52' E 023°34'3 5.5
2017-Jun-27 13:00N 37°49' E 023°34'3 5.6
2017-Jun-27 12:30N 37°46' E 023°34'  
2017-Jun-23 13:51N 37°34' E 023°31'  
Track history (hours):
 
Tides and Currents Weather Stations Pressure Air Temp Water Temp Dewpoint Dewpoint Depression Visibility Wind Speed Wind Dir Waves Ship Positions

Amarant

Last reported at 2017-Jul-03 13:48 UTC. Time now 2017-Oct-23 06:23 UTC.
Position N 37°44' E 023°43'.
Warning: this ship's position is months out of date.

Length 14 m.

Type: Sailing vessel. MMSI: 261015190.

Date/timePositionNaut miles runAvg speedWind from/ knotsBaromVisibWave heightAir tempDewpointWater temp
2017-Jul-03 13:48N 37°44' E 023°43'2 5.7
2017-Jul-03 13:28N 37°46' E 023°42'3 6.3
2017-Jul-03 13:00N 37°49' E 023°41'3 6.3
2017-Jul-03 12:30N 37°52' E 023°41'3 6.5
2017-Jul-03 12:00N 37°55' E 023°39'1 0.5
2017-Jul-03 09:17N 37°56' E 023°39'0 0.0
2017-Jul-03 08:59N 37°56' E 023°39'0 0.0
2017-Jul-03 08:29N 37°56' E 023°39'0 0.0
2017-Jul-03 07:56N 37°56' E 023°39'0 0.0
2017-Jul-03 07:29N 37°56' E 023°39'0 0.0
2017-Jul-01 17:48N 37°56' E 023°39'  
2017-Jun-28 09:13N 37°56' E 023°39'0 0.0
2017-Jun-28 08:55N 37°56' E 023°39'0 0.0
2017-Jun-28 08:28N 37°56' E 023°39'0 0.0
2017-Jun-28 07:58N 37°56' E 023°39'0 0.0
2017-Jun-28 07:25N 37°56' E 023°39'0 0.0
2017-Jun-28 06:58N 37°56' E 023°39'0 0.0
2017-Jun-28 06:28N 37°56' E 023°39'0 0.0
2017-Jun-28 05:58N 37°56' E 023°39'0 0.0
2017-Jun-28 05:28N 37°56' E 023°39'0 0.0
2017-Jun-28 04:55N 37°56' E 023°39'0 0.0
2017-Jun-28 04:28N 37°56' E 023°39'0 0.0
2017-Jun-28 03:58N 37°56' E 023°39'0 0.0
2017-Jun-28 03:28N 37°56' E 023°39'0 0.0
2017-Jun-28 02:58N 37°56' E 023°39'0 0.0
2017-Jun-28 02:28N 37°56' E 023°39'0 0.0
2017-Jun-28 01:58N 37°56' E 023°39'0 0.0
2017-Jun-28 01:28N 37°56' E 023°39'0 0.0
2017-Jun-28 00:58N 37°56' E 023°39'0 0.0
2017-Jun-28 00:28N 37°56' E 023°39'0 0.0
2017-Jun-27 23:58N 37°56' E 023°39'0 0.0
2017-Jun-27 23:28N 37°56' E 023°39'0 0.0
2017-Jun-27 22:58N 37°56' E 023°39'0 0.0
2017-Jun-27 22:28N 37°56' E 023°39'0 0.0
2017-Jun-27 21:58N 37°56' E 023°39'0 0.0
2017-Jun-27 21:28N 37°56' E 023°39'0 0.0
2017-Jun-27 20:58N 37°56' E 023°39'0 0.0
2017-Jun-27 20:28N 37°56' E 023°39'0 0.0
2017-Jun-27 19:58N 37°56' E 023°39'0 0.0
2017-Jun-27 19:28N 37°56' E 023°39'0 0.0
2017-Jun-27 18:58N 37°56' E 023°39'0 0.0
2017-Jun-27 18:28N 37°56' E 023°39'0 0.0
2017-Jun-27 17:58N 37°56' E 023°39'0 0.0
2017-Jun-27 17:28N 37°56' E 023°39'0 0.0
2017-Jun-27 16:58N 37°56' E 023°39'1 1.4
2017-Jun-27 16:30N 37°55' E 023°39'3 5.3
2017-Jun-27 16:01N 37°55' E 023°35'3 5.6
2017-Jun-27 15:31N 37°55' E 023°32'1 0.4
2017-Jun-27 14:00N 37°54' E 023°32'3 5.5
2017-Jun-27 13:30N 37°52' E 023°34'3 5.5
2017-Jun-27 13:00N 37°49' E 023°34'3 5.6
2017-Jun-27 12:30N 37°46' E 023°34'  
2017-Jun-23 13:51N 37°34' E 023°31'  

Dump ship's entire track history